Airfield :







YOU CAN JOIN US ON...

 
LOGIN :

Register | Disclaimer

   EN    FR    IT 

 









Legend :    VFR   Marginal VFR   IFR   Intensive IFR   Very Intensive IFR
Visi :
Ceiling :
>= 8 km
>= 3000ft
5 to 8 km
1000 to 3000 ft
1500m to 5 km
500 to 1000 ft
800 to 1500m
200 to 500 ft
< 800m
< 200 ft
Symbols :   Thunderstorms  Fog  Heavy snow  Heavy precipitations  Wind > 20 kt







- Airport Elevation : 148 ft


KLWM - Lawrence Municipal

CURRENT METAR :
  • 221354Z 06007KT 10SM OVC003 11/10 A3012 RMK AO2 SLP200 T01110100

EXPIRED METARs :
  • 221254Z 06009KT 8SM OVC003 12/11 A3013 RMK AO2 SLP203 T01170106
  • 221224Z 06007KT 10SM OVC004 12/11 A3013 RMK AO2 T01220111
  • 221154Z 04007KT 10SM BKN006 12/11 A3013 RMK AO2 SLP201 T01220111 10128 20100 50011
  • 221142Z 03007KT 10SM SCT007 SCT120 12/11 A3013 RMK AO2 T01220111

TAF N/A
KZBW FIR / North America



MET'MAP, your aeronautical weather chart ! - Copyright ORBIFLY December 2007 - Disclaimer

ORBIFLY MET'MAP TEAM :

Programming & Development : Alexandra Zaïnal
Concept & Development : Baudouin d'Aumeries
Co-Development & Prog : Marc-Olivier Méhu
Technical & hardware support : Manuel Goepfert

Contact : metmap@orbifly.com




SOURCES & CREDITS :

   NOAA